Time;durP1;ratioP1;P1;durP2;ratioP2;P2;SDS_P1;SDS_P2;PMS_P1;PMS_P2;Temp;Humidity;BMP_temperature;BMP_pressure;BME280_temperature;BME280_humidity;BME280_pressure;Samples;Min_cycle;Max_cycle;Signal;HPM_P1;HPM_P2
2022/09/11 00:00:04;;;;;;;4.40;1.20;;;;;;;18.50;64.07;97520.56;5064601;28;20254;-72
2022/09/11 00:02:29;;;;;;;2.30;1.33;;;;;;;18.36;64.73;97525.81;5056457;28;20217;-71
2022/09/11 00:04:55;;;;;;;3.37;1.50;;;;;;;18.49;64.39;97527.72;5064616;28;20213;-70
2022/09/11 00:07:20;;;;;;;4.03;1.20;;;;;;;18.46;64.50;97520.16;5060769;28;20649;-72
2022/09/11 00:09:46;;;;;;;3.00;1.10;;;;;;;18.42;64.70;97518.91;5058964;28;20678;-70
2022/09/11 00:12:11;;;;;;;3.10;1.07;;;;;;;18.35;64.77;97510.09;5054938;28;20571;-69
2022/09/11 00:14:37;;;;;;;2.50;1.07;;;;;;;18.32;64.54;97508.66;5064982;28;20332;-69
2022/09/11 00:17:02;;;;;;;1.63;0.93;;;;;;;18.23;65.03;97510.63;5059472;28;20303;-71
2022/09/11 00:19:27;;;;;;;1.67;1.00;;;;;;;18.31;65.18;97511.47;5069128;28;20247;-70
2022/09/11 00:21:56;;;;;;;3.73;1.40;;;;;;;18.29;65.13;97506.38;5050311;28;20210;-71
2022/09/11 00:24:21;;;;;;;5.10;1.40;;;;;;;18.30;65.05;97508.03;5059292;28;20755;-70
2022/09/11 00:26:47;;;;;;;1.40;1.13;;;;;;;18.30;65.28;97504.53;5064627;28;20420;-71
2022/09/11 00:29:12;;;;;;;1.30;1.20;;;;;;;18.26;64.93;97515.56;5047762;28;20701;-70
2022/09/11 00:31:38;;;;;;;1.10;1.00;;;;;;;18.27;65.29;97509.22;5068194;28;20244;-70
2022/09/11 00:34:03;;;;;;;1.93;1.10;;;;;;;18.30;65.13;97513.31;5059980;28;20179;-71
2022/09/11 00:36:34;;;;;;;2.13;0.90;;;;;;;18.27;65.16;97517.16;5076473;28;20190;-71
2022/09/11 00:39:00;;;;;;;1.70;1.20;;;;;;;18.17;65.59;97506.09;5061816;28;20548;-71
2022/09/11 00:41:26;;;;;;;2.90;1.00;;;;;;;18.21;65.51;97509.19;5061124;28;20409;-69
2022/09/11 00:43:52;;;;;;;4.03;1.40;;;;;;;18.23;65.08;97510.63;5064422;28;20195;-70
2022/09/11 00:46:18;;;;;;;4.50;1.20;;;;;;;18.35;65.08;97518.06;5060625;28;20505;-70
2022/09/11 00:48:48;;;;;;;1.73;1.00;;;;;;;18.34;65.21;97505.78;5066765;28;20197;-70
2022/09/11 00:51:17;;;;;;;3.13;1.03;;;;;;;18.26;65.09;97510.25;5061283;28;20433;-71
2022/09/11 00:53:43;;;;;;;1.30;1.10;;;;;;;18.24;65.05;97506.13;5062039;28;20430;-69
2022/09/11 00:56:09;;;;;;;3.53;1.10;;;;;;;18.31;64.97;97508.81;5059332;28;20847;-72
2022/09/11 00:58:37;;;;;;;1.23;1.07;;;;;;;18.37;64.83;97513.38;5057834;28;20429;-72
2022/09/11 01:01:02;;;;;;;1.73;1.10;;;;;;;18.37;64.66;97505.41;5063025;28;20425;-69
2022/09/11 01:03:29;;;;;;;1.80;1.10;;;;;;;18.39;64.84;97508.69;5065672;28;20784;-70
2022/09/11 01:05:55;;;;;;;6.03;1.67;;;;;;;18.42;64.73;97509.13;5055330;28;20206;-70
2022/09/11 01:08:21;;;;;;;4.73;1.43;;;;;;;18.21;65.60;97514.50;5059654;28;20426;-71
2022/09/11 01:11:02;;;;;;;3.07;1.50;;;;;;;18.35;65.36;97507.44;5052345;28;20413;-70
2022/09/11 01:13:43;;;;;;;3.50;1.30;;;;;;;18.40;65.18;97502.34;5064183;28;20452;-71
2022/09/11 01:16:18;;;;;;;1.70;1.33;;;;;;;18.45;65.13;97501.78;5067821;28;20448;-70
2022/09/11 01:19:07;;;;;;;1.53;1.00;;;;;;;18.43;65.41;97501.97;5055581;28;20408;-69
2022/09/11 01:21:57;;;;;;;2.03;1.00;;;;;;;18.47;65.17;97497.06;5040267;28;20432;-71
2022/09/11 01:24:32;;;;;;;5.70;1.20;;;;;;;18.46;65.25;97503.44;5060489;28;20529;-71
2022/09/11 01:27:25;;;;;;;1.00;0.90;;;;;;;18.48;65.15;97504.03;5071492;28;20415;-70
2022/09/11 01:30:12;;;;;;;2.03;1.30;;;;;;;18.48;65.09;97504.88;5058509;28;20424;-70
2022/09/11 01:32:54;;;;;;;2.33;1.17;;;;;;;18.41;65.45;97511.94;5058505;28;20444;-70
2022/09/11 01:35:33;;;;;;;1.57;1.07;;;;;;;18.48;65.07;97512.00;5063709;28;20519;-72
2022/09/11 01:38:02;;;;;;;3.27;1.10;;;;;;;18.38;65.26;97510.50;5055482;28;20417;-71
2022/09/11 01:40:44;;;;;;;2.40;1.17;;;;;;;18.48;65.08;97512.81;5064981;28;20413;-71
2022/09/11 01:43:15;;;;;;;2.43;1.50;;;;;;;18.54;65.04;97517.34;5064118;28;20815;-72
2022/09/11 01:45:43;;;;;;;2.37;1.20;;;;;;;18.57;64.99;97516.94;5063824;28;20436;-71
2022/09/11 01:48:10;;;;;;;3.93;1.27;;;;;;;18.57;64.84;97516.94;5054446;28;20822;-70
2022/09/11 01:50:38;;;;;;;4.00;1.30;;;;;;;18.55;64.98;97512.88;5062188;28;20504;-70
2022/09/11 01:53:04;;;;;;;8.33;1.77;;;;;;;18.49;65.40;97517.13;5066658;28;20540;-72
2022/09/11 01:55:35;;;;;;;1.87;1.30;;;;;;;18.56;65.19;97520.63;5048647;28;20445;-71
2022/09/11 01:58:09;;;;;;;2.70;1.10;;;;;;;18.60;65.01;97514.94;5068751;28;20444;-72
2022/09/11 02:00:37;;;;;;;2.50;1.13;;;;;;;18.58;64.90;97510.63;5064861;28;20419;-70
2022/09/11 02:03:14;;;;;;;2.63;1.30;;;;;;;18.46;64.98;97506.88;5066518;28;20417;-70
2022/09/11 02:05:46;;;;;;;2.90;1.40;;;;;;;18.53;64.96;97517.53;5063347;28;20444;-70
2022/09/11 02:08:35;;;;;;;3.20;1.23;;;;;;;18.47;65.35;97516.50;5067358;28;20435;-70
2022/09/11 02:11:09;;;;;;;3.57;1.33;;;;;;;18.44;65.29;97518.72;5057335;28;20444;-71
2022/09/11 02:13:57;;;;;;;2.73;1.23;;;;;;;18.51;65.20;97517.75;5071754;28;20448;-71
2022/09/11 02:16:35;;;;;;;2.47;1.23;;;;;;;18.50;65.23;97516.09;5029628;28;20764;-71
2022/09/11 02:19:04;;;;;;;3.20;1.60;;;;;;;18.47;65.24;97510.34;5052243;28;20420;-71
2022/09/11 02:21:31;;;;;;;3.37;1.80;;;;;;;18.44;65.35;97513.41;5022307;28;20424;-71
2022/09/11 02:23:57;;;;;;;2.93;1.83;;;;;;;18.46;65.48;97512.19;5020591;28;20952;-72
2022/09/11 02:26:23;;;;;;;6.10;1.40;;;;;;;18.46;65.55;97524.66;5066456;28;20425;-72
2022/09/11 02:28:50;;;;;;;1.63;1.17;;;;;;;18.40;65.60;97513.78;5059705;28;20547;-72
2022/09/11 02:31:18;;;;;;;3.13;1.43;;;;;;;18.47;65.37;97519.16;5068125;28;20422;-71
2022/09/11 02:33:44;;;;;;;3.27;1.20;;;;;;;18.51;65.32;97523.06;5066088;28;20470;-71
2022/09/11 02:36:28;;;;;;;1.77;1.47;;;;;;;18.54;65.33;97527.94;5062354;28;20448;-70
2022/09/11 02:39:21;;;;;;;1.60;1.30;;;;;;;18.56;65.12;97533.88;5060345;28;20483;-71
2022/09/11 02:42:12;;;;;;;4.17;1.50;;;;;;;18.55;65.09;97532.25;5060762;28;20425;-72
2022/09/11 02:44:51;;;;;;;1.80;1.50;;;;;;;18.54;65.03;97533.25;5066553;28;20524;-71
2022/09/11 02:47:36;;;;;;;5.23;1.53;;;;;;;18.56;65.09;97530.44;5060227;28;20528;-71
2022/09/11 02:50:28;;;;;;;2.67;1.60;;;;;;;18.51;65.10;97536.31;5064540;28;20822;-70
2022/09/11 02:53:36;;;;;;;2.83;1.30;;;;;;;18.50;65.11;97542.66;5053235;28;20457;-70
2022/09/11 02:56:18;;;;;;;1.77;1.60;;;;;;;18.56;65.17;97541.84;5055871;28;20452;-72
2022/09/11 02:58:49;;;;;;;5.53;1.40;;;;;;;18.61;65.03;97538.59;5057691;28;20766;-71
2022/09/11 03:01:14;;;;;;;3.10;1.70;;;;;;;18.62;64.93;97537.59;5062642;28;20814;-72
2022/09/11 03:03:43;;;;;;;3.80;1.50;;;;;;;18.64;65.04;97532.91;5059959;28;20433;-71
2022/09/11 03:06:11;;;;;;;4.87;1.80;;;;;;;18.64;65.11;97534.75;5066285;28;20208;-72
2022/09/11 03:08:37;;;;;;;1.40;1.30;;;;;;;18.67;65.12;97537.00;5062125;28;20418;-70
2022/09/11 03:11:02;;;;;;;1.27;1.17;;;;;;;18.64;65.17;97534.75;5063983;28;20489;-71
2022/09/11 03:13:28;;;;;;;4.83;1.73;;;;;;;18.65;65.23;97533.75;5065756;28;20202;-70
2022/09/11 03:15:53;;;;;;;18.33;1.70;;;;;;;18.63;65.37;97536.56;5067056;28;20289;-71
2022/09/11 03:18:19;;;;;;;1.60;1.50;;;;;;;18.69;65.25;97540.28;5070117;28;20186;-70
2022/09/11 03:20:48;;;;;;;2.13;1.53;;;;;;;18.70;65.23;97542.75;5059964;28;20214;-70
2022/09/11 03:23:14;;;;;;;1.83;1.40;;;;;;;18.72;65.33;97539.91;5065885;28;20200;-71
2022/09/11 03:25:39;;;;;;;2.80;1.50;;;;;;;18.75;65.10;97544.81;5059532;28;20529;-70
2022/09/11 03:28:05;;;;;;;5.90;1.73;;;;;;;18.73;65.08;97541.53;5054123;28;20194;-69
2022/09/11 03:30:31;;;;;;;2.60;1.70;;;;;;;18.70;65.07;97536.63;5071187;28;20186;-71
2022/09/11 03:32:57;;;;;;;1.63;1.53;;;;;;;18.69;65.25;97540.28;5064626;28;20289;-70
2022/09/11 03:35:24;;;;;;;1.70;1.60;;;;;;;18.66;65.16;97530.06;5054900;28;21045;-71
2022/09/11 03:37:49;;;;;;;4.23;1.57;;;;;;;18.57;65.50;97538.19;5066061;28;20177;-70
2022/09/11 03:40:15;;;;;;;4.10;2.10;;;;;;;18.61;65.44;97540.44;5062921;28;20811;-70
2022/09/11 03:42:40;;;;;;;2.57;1.90;;;;;;;18.61;65.10;97535.16;5070261;28;20182;-71
2022/09/11 03:45:06;;;;;;;1.80;1.70;;;;;;;18.58;65.61;97539.81;5030870;28;20207;-71
2022/09/11 03:47:32;;;;;;;2.73;2.00;;;;;;;18.54;65.59;97538.56;5049378;28;20261;-71
2022/09/11 03:49:57;;;;;;;3.10;2.20;;;;;;;18.51;65.56;97538.16;5050043;28;20505;-70
2022/09/11 03:52:23;;;;;;;2.30;2.10;;;;;;;18.56;65.64;97543.69;5050366;28;20333;-70
2022/09/11 03:54:48;;;;;;;2.27;2.07;;;;;;;18.56;65.71;97547.16;5048297;28;20195;-70
2022/09/11 03:57:14;;;;;;;3.40;1.90;;;;;;;18.61;65.62;97543.91;5049200;28;20269;-71
2022/09/11 03:59:39;;;;;;;4.43;2.20;;;;;;;18.64;65.54;97548.03;5050767;28;20187;-70
2022/09/11 04:02:05;;;;;;;5.87;2.53;;;;;;;18.66;65.44;97548.63;5044709;28;20182;-70
2022/09/11 04:04:30;;;;;;;7.20;2.50;;;;;;;18.67;65.61;97550.28;5049936;28;20622;-71
2022/09/11 04:06:55;;;;;;;7.80;2.17;;;;;;;18.70;65.56;97542.75;5057541;28;20271;-70
2022/09/11 04:09:21;;;;;;;3.40;2.40;;;;;;;18.71;65.47;97546.22;5043463;28;20543;-70
2022/09/11 04:11:47;;;;;;;3.10;2.20;;;;;;;18.77;65.43;97548.09;5045952;28;20281;-70
2022/09/11 04:14:12;;;;;;;2.13;2.03;;;;;;;18.78;65.35;97547.06;5049695;28;20704;-70
2022/09/11 04:16:37;;;;;;;2.43;2.23;;;;;;;18.77;65.25;97548.09;5053330;28;20549;-70
2022/09/11 04:19:03;;;;;;;2.03;1.93;;;;;;;18.80;65.10;97542.38;5049478;28;20258;-71
2022/09/11 04:21:30;;;;;;;2.53;2.10;;;;;;;18.80;65.14;97542.38;5058380;28;20175;-70
2022/09/11 04:23:59;;;;;;;2.97;2.50;;;;;;;18.82;65.16;97548.31;5049888;28;20220;-70
2022/09/11 04:26:26;;;;;;;4.30;2.93;;;;;;;18.79;65.11;97546.06;5048930;28;20951;-70
2022/09/11 04:28:52;;;;;;;2.83;2.63;;;;;;;18.77;65.32;97545.44;5044280;28;20501;-70
2022/09/11 04:31:18;;;;;;;3.37;2.73;;;;;;;18.79;65.10;97559.31;5049033;28;20786;-72
2022/09/11 04:33:44;;;;;;;4.20;2.80;;;;;;;18.79;65.08;97548.69;5049886;28;20186;-70
2022/09/11 04:36:12;;;;;;;8.00;2.70;;;;;;;18.79;65.22;97561.97;5048864;28;20458;-70
2022/09/11 04:38:40;;;;;;;2.97;2.77;;;;;;;18.76;65.38;97551.78;5053549;28;20896;-72
2022/09/11 04:41:06;;;;;;;3.00;2.40;;;;;;;18.77;65.40;97558.72;5049713;28;20450;-70
2022/09/11 04:43:37;;;;;;;6.77;2.60;;;;;;;18.77;65.33;97560.53;5048217;28;20422;-70
2022/09/11 04:46:14;;;;;;;2.60;2.40;;;;;;;18.76;65.46;97561.56;5049343;28;20449;-70
2022/09/11 04:48:46;;;;;;;3.07;2.77;;;;;;;18.78;65.54;97570.97;5042344;28;20986;-70
2022/09/11 04:51:19;;;;;;;3.10;2.80;;;;;;;18.78;65.40;97573.63;5049199;28;20984;-70
2022/09/11 04:53:44;;;;;;;4.70;2.67;;;;;;;18.82;65.43;97576.72;5048780;28;20432;-70
2022/09/11 04:56:14;;;;;;;3.30;2.90;;;;;;;18.82;65.45;97577.53;5049096;28;20449;-71
2022/09/11 04:58:40;;;;;;;5.47;2.90;;;;;;;18.80;65.32;97578.75;5048828;28;20569;-71
2022/09/11 05:01:12;;;;;;;3.20;2.90;;;;;;;18.80;65.35;97584.84;5049580;28;20417;-71
2022/09/11 05:03:38;;;;;;;4.30;2.87;;;;;;;18.81;65.59;97588.34;5049574;28;21042;-70
2022/09/11 05:06:07;;;;;;;3.30;3.00;;;;;;;18.79;65.52;97593.84;5049775;28;20476;-70
2022/09/11 05:08:33;;;;;;;3.47;2.83;;;;;;;18.82;65.43;97600.63;5046203;28;20417;-70
2022/09/11 05:10:59;;;;;;;5.00;2.83;;;;;;;18.80;65.43;97603.44;5054308;28;20426;-70
2022/09/11 05:13:26;;;;;;;3.30;3.00;;;;;;;18.81;65.53;97606.94;5049132;28;20211;-70
2022/09/11 05:15:51;;;;;;;3.17;2.80;;;;;;;18.81;65.33;97605.09;5054847;28;20495;-70
2022/09/11 05:18:17;;;;;;;3.90;3.50;;;;;;;18.81;65.42;97605.09;5048225;28;20418;-71
2022/09/11 05:20:42;;;;;;;3.43;3.10;;;;;;;18.83;65.36;97616.34;5049346;28;20207;-72
2022/09/11 05:23:10;;;;;;;4.47;3.17;;;;;;;18.85;65.22;97613.47;5049082;28;20183;-71
2022/09/11 05:25:36;;;;;;;3.47;3.10;;;;;;;18.87;65.29;97612.28;5048068;28;20203;-70
2022/09/11 05:28:02;;;;;;;4.13;3.03;;;;;;;18.88;65.24;97619.25;5043117;28;20518;-71
2022/09/11 05:30:28;;;;;;;8.00;3.50;;;;;;;18.86;65.21;97620.44;5049071;28;20179;-70
2022/09/11 05:32:54;;;;;;;7.40;2.93;;;;;;;18.88;65.33;97623.72;5047787;28;20515;-70
2022/09/11 05:35:22;;;;;;;4.73;3.33;;;;;;;18.85;65.10;97624.94;5048546;28;20241;-69
2022/09/11 05:37:48;;;;;;;6.03;3.43;;;;;;;18.86;65.07;97623.91;5048236;28;20799;-70
2022/09/11 05:40:13;;;;;;;4.93;3.37;;;;;;;18.90;65.19;97629.66;5048556;28;20428;-69
2022/09/11 05:42:39;;;;;;;4.10;3.50;;;;;;;18.91;65.05;97628.66;5051952;28;20182;-70
2022/09/11 05:45:05;;;;;;;4.30;3.57;;;;;;;18.93;64.99;97631.94;5046291;28;21682;-69
2022/09/11 05:47:30;;;;;;;4.70;3.17;;;;;;;18.98;65.04;97642.00;5052302;28;20527;-71
2022/09/11 05:49:56;;;;;;;4.33;3.30;;;;;;;19.00;64.87;97639.97;5052713;28;20425;-70
2022/09/11 05:52:23;;;;;;;5.83;3.53;;;;;;;19.04;65.00;97641.19;5052447;28;20199;-70
2022/09/11 05:54:49;;;;;;;8.00;4.57;;;;;;;19.06;64.65;97643.66;5049499;28;20203;-74
2022/09/11 05:57:14;;;;;;;5.70;3.43;;;;;;;19.07;64.70;97643.47;5051252;28;20426;-71
2022/09/11 05:59:40;;;;;;;8.07;3.20;;;;;;;19.09;64.50;97646.75;5053462;28;20183;-71
2022/09/11 06:02:05;;;;;;;5.77;3.13;;;;;;;19.12;64.59;97645.53;5045916;28;20180;-72
2022/09/11 06:04:31;;;;;;;4.10;3.63;;;;;;;19.10;64.53;97647.56;5044695;28;20725;-70
2022/09/11 06:06:56;;;;;;;3.47;3.17;;;;;;;19.11;64.58;97652.69;5060092;28;20187;-71
2022/09/11 06:09:22;;;;;;;4.27;3.87;;;;;;;19.12;64.48;97651.69;5052428;28;20221;-71
2022/09/11 06:11:48;;;;;;;4.23;3.80;;;;;;;19.11;64.38;97658.00;5050202;28;20211;-68
2022/09/11 06:14:13;;;;;;;5.23;3.60;;;;;;;19.11;64.23;97665.97;5052417;28;20248;-70
2022/09/11 06:16:39;;;;;;;4.20;3.80;;;;;;;19.13;64.61;97668.41;5051788;28;20477;-70
2022/09/11 06:19:05;;;;;;;6.23;4.23;;;;;;;19.13;64.54;97666.59;5049093;28;20278;-70
2022/09/11 06:21:30;;;;;;;6.93;4.13;;;;;;;19.16;64.37;97658.22;5052537;28;20520;-71
2022/09/11 06:23:56;;;;;;;4.27;3.97;;;;;;;19.16;64.30;97673.34;5052760;28;20214;-70
2022/09/11 06:26:24;;;;;;;6.17;4.60;;;;;;;19.18;64.36;97676.63;5049604;28;20214;-69
2022/09/11 06:28:50;;;;;;;3.87;3.47;;;;;;;19.17;64.13;97675.81;5040710;28;20199;-71
2022/09/11 06:31:18;;;;;;;4.93;4.40;;;;;;;19.18;64.29;97677.44;5034913;28;20438;-70
2022/09/11 06:33:44;;;;;;;4.50;4.10;;;;;;;19.19;64.28;97684.41;5036317;28;20421;-70
2022/09/11 06:36:16;;;;;;;4.77;4.30;;;;;;;19.21;64.25;97694.00;5042533;28;20441;-69
2022/09/11 06:38:43;;;;;;;7.73;4.33;;;;;;;19.22;63.97;97693.00;5045730;28;20432;-71
2022/09/11 06:41:11;;;;;;;4.70;4.30;;;;;;;19.25;64.23;97692.63;5037076;28;20784;-69
2022/09/11 06:43:36;;;;;;;6.07;4.73;;;;;;;19.27;64.12;97693.25;5045408;28;20479;-69
2022/09/11 06:46:13;;;;;;;4.43;3.77;;;;;;;19.30;64.20;97703.47;5044103;28;20438;-69
2022/09/11 06:48:40;;;;;;;5.53;4.60;;;;;;;19.32;63.70;97714.72;5022146;28;20240;-70
2022/09/11 06:51:06;;;;;;;5.60;3.87;;;;;;;19.31;63.94;97697.13;5041202;28;20770;-69
2022/09/11 06:53:32;;;;;;;5.70;4.47;;;;;;;19.36;63.65;97702.69;5033016;28;20555;-69
2022/09/11 06:56:01;;;;;;;4.90;4.50;;;;;;;19.39;63.57;97710.28;5050207;28;20472;-70
2022/09/11 06:58:28;;;;;;;4.70;4.30;;;;;;;19.42;63.55;97693.09;5041959;28;20173;-71
2022/09/11 07:00:54;;;;;;;9.23;4.77;;;;;;;19.43;63.40;97697.41;5046234;28;20429;-69
2022/09/11 07:03:20;;;;;;;7.43;4.63;;;;;;;19.46;63.24;97700.47;5042125;28;20449;-71
2022/09/11 07:05:46;;;;;;;8.10;4.80;;;;;;;19.49;63.44;97700.09;5040549;28;20532;-70
2022/09/11 07:08:11;;;;;;;5.60;5.10;;;;;;;19.54;63.22;97699.50;5034707;28;20183;-71
2022/09/11 07:10:37;;;;;;;6.67;4.97;;;;;;;19.59;62.95;97699.75;5042391;28;20175;-70
2022/09/11 07:13:02;;;;;;;5.07;4.60;;;;;;;19.65;63.09;97703.44;5039769;28;20690;-70
2022/09/11 07:15:28;;;;;;;7.13;4.53;;;;;;;19.70;63.02;97706.31;5034122;28;20199;-69
2022/09/11 07:17:54;;;;;;;5.20;4.03;;;;;;;19.74;63.00;97710.22;5042366;28;20225;-71
2022/09/11 07:20:20;;;;;;;6.10;4.70;;;;;;;19.76;62.79;97699.38;5046456;28;20190;-70
2022/09/11 07:22:46;;;;;;;7.33;4.77;;;;;;;19.78;62.82;97703.47;5043266;28;20784;-71
2022/09/11 07:25:12;;;;;;;5.63;5.00;;;;;;;19.77;62.60;97706.34;5046707;28;20458;-70
2022/09/11 07:27:38;;;;;;;7.07;4.70;;;;;;;19.79;62.32;97699.78;5039901;28;20180;-69
2022/09/11 07:30:04;;;;;;;5.13;4.57;;;;;;;19.83;62.48;97705.56;5039666;28;20431;-70
2022/09/11 07:32:30;;;;;;;5.97;4.47;;;;;;;19.90;62.70;97711.72;5033233;28;20286;-70
2022/09/11 07:34:55;;;;;;;5.03;4.53;;;;;;;19.97;62.58;97706.44;5039955;28;20266;-69
2022/09/11 07:37:20;;;;;;;7.10;4.70;;;;;;;20.02;62.67;97714.63;5045698;28;20440;-69
2022/09/11 07:39:46;;;;;;;9.07;5.00;;;;;;;20.07;62.22;97714.84;5040667;28;20184;-69
2022/09/11 07:42:11;;;;;;;7.40;4.50;;;;;;;20.11;62.10;97723.22;5049323;28;20180;-70
2022/09/11 07:44:37;;;;;;;5.83;5.23;;;;;;;20.15;62.05;97723.69;5041355;28;20568;-68
2022/09/11 07:47:03;;;;;;;6.90;5.10;;;;;;;20.19;61.63;97724.88;5053073;28;20178;-70
2022/09/11 07:49:28;;;;;;;6.60;5.67;;;;;;;20.22;61.59;97722.66;5049574;28;20183;-71
2022/09/11 07:51:54;;;;;;;4.80;4.47;;;;;;;20.29;61.73;97725.31;5038895;28;20191;-70
2022/09/11 07:54:20;;;;;;;5.30;4.73;;;;;;;20.32;61.31;97730.25;5045617;28;20288;-69
2022/09/11 07:56:46;;;;;;;7.50;5.33;;;;;;;20.35;61.17;97729.84;5025844;28;20214;-68
2022/09/11 07:59:12;;;;;;;4.70;4.23;;;;;;;20.44;61.10;97726.97;5030271;28;20885;-70
2022/09/11 08:01:37;;;;;;;5.43;4.87;;;;;;;20.48;61.20;97739.69;5010268;28;20415;-68
2022/09/11 08:04:05;;;;;;;5.73;5.00;;;;;;;20.52;60.70;97734.78;5031653;28;20174;-70
2022/09/11 08:06:32;;;;;;;6.10;4.90;;;;;;;20.56;60.29;97734.16;5047345;28;20236;-68
2022/09/11 08:09:00;;;;;;;5.13;4.77;;;;;;;20.60;60.41;97736.44;5037610;28;20783;-69
2022/09/11 08:11:27;;;;;;;5.17;4.67;;;;;;;20.60;60.07;97739.91;5043195;28;21008;-70
2022/09/11 08:13:54;;;;;;;7.10;5.80;;;;;;;20.60;59.86;97742.56;5034224;28;20430;-70
2022/09/11 08:16:22;;;;;;;8.57;6.50;;;;;;;20.63;59.81;97744.84;5055126;28;20504;-71
2022/09/11 08:18:47;;;;;;;6.60;5.77;;;;;;;20.66;59.51;97741.78;5035501;28;20422;-70
2022/09/11 08:21:13;;;;;;;6.30;5.77;;;;;;;20.70;59.31;97745.63;5049695;28;20425;-70
2022/09/11 08:23:40;;;;;;;6.07;5.57;;;;;;;20.71;59.36;97755.28;5040203;28;20171;-70
2022/09/11 08:26:07;;;;;;;9.27;6.87;;;;;;;20.69;58.63;97746.66;5039011;28;20533;-70
2022/09/11 08:28:33;;;;;;;7.93;7.10;;;;;;;20.67;58.99;97756.69;5042382;28;20436;-70
2022/09/11 08:31:00;;;;;;;7.37;6.60;;;;;;;20.66;59.19;97756.91;5050113;28;20743;-70
2022/09/11 08:33:28;;;;;;;8.17;6.47;;;;;;;20.70;58.74;97756.28;5049989;28;20796;-70
2022/09/11 08:35:56;;;;;;;6.70;6.10;;;;;;;20.74;58.90;97756.69;5041258;28;20457;-70
2022/09/11 08:38:21;;;;;;;8.17;5.63;;;;;;;20.87;58.71;97753.25;5028749;28;20435;-71
2022/09/11 08:40:47;;;;;;;8.13;7.23;;;;;;;20.99;57.89;97754.28;5020396;28;20837;-69
2022/09/11 08:43:21;;;;;;;6.00;5.40;;;;;;;21.11;57.95;97754.47;4997286;28;20720;-71
2022/09/11 08:45:48;;;;;;;7.90;6.10;;;;;;;21.17;57.53;97756.31;5032319;28;20198;-70
2022/09/11 08:48:13;;;;;;;6.60;5.80;;;;;;;21.23;57.45;97756.53;5042516;28;20501;-69
2022/09/11 08:50:41;;;;;;;7.10;5.47;;;;;;;21.26;57.22;97756.91;5030613;28;20414;-69
2022/09/11 08:53:14;;;;;;;6.73;5.93;;;;;;;21.26;56.95;97762.25;5035426;28;20601;-68
2022/09/11 08:55:45;;;;;;;6.63;5.57;;;;;;;21.29;56.33;97761.84;5041623;28;20506;-69
2022/09/11 08:58:51;;;;;;;7.90;5.90;;;;;;;21.28;55.77;97757.53;5041018;28;20433;-69
2022/09/11 09:01:19;;;;;;;11.00;5.20;;;;;;;21.29;55.46;97761.84;5034480;28;20438;-69
2022/09/11 09:03:52;;;;;;;11.53;5.20;;;;;;;21.34;55.74;97758.56;5040987;28;20472;-69
2022/09/11 09:06:44;;;;;;;5.20;4.70;;;;;;;21.68;56.01;97753.13;5040406;28;20451;-69
2022/09/11 09:09:29;;;;;;;7.30;5.20;;;;;;;22.29;55.52;97764.38;5031392;28;20430;-70
2022/09/11 09:12:20;;;;;;;6.20;5.60;;;;;;;22.84;53.28;97756.63;5038975;28;20613;-71
2022/09/11 09:15:16;;;;;;;4.90;4.03;;;;;;;23.50;51.75;97750.06;5036923;28;20528;-68
2022/09/11 09:17:48;;;;;;;7.80;4.73;;;;;;;23.97;48.11;97747.69;5049276;28;20754;-69
2022/09/11 09:20:21;;;;;;;5.27;4.33;;;;;;;24.43;47.26;97755.31;5047322;28;20992;-70
2022/09/11 09:23:20;;;;;;;8.17;4.80;;;;;;;24.89;47.00;97753.78;5027711;28;20424;-71
2022/09/11 09:25:47;;;;;;;4.57;4.17;;;;;;;25.28;45.17;97758.69;5039181;28;20982;-69
2022/09/11 09:28:23;;;;;;;5.73;4.57;;;;;;;25.64;44.57;97759.53;5045197;28;20414;-69
2022/09/11 09:30:58;;;;;;;5.03;3.80;;;;;;;25.85;42.59;97758.03;5053535;28;20419;-70
2022/09/11 09:33:36;;;;;;;4.10;3.80;;;;;;;26.00;41.68;97757.53;5050912;28;20457;-70
2022/09/11 09:36:16;;;;;;;6.43;4.37;;;;;;;25.84;40.99;97758.28;5053044;28;20452;-69
2022/09/11 09:38:42;;;;;;;6.03;4.63;;;;;;;25.51;42.00;97759.78;5048658;28;20421;-70
2022/09/11 09:41:31;;;;;;;6.17;4.10;;;;;;;25.20;42.87;97770.63;5050259;28;20430;-69
2022/09/11 09:44:05;;;;;;;6.60;4.77;;;;;;;24.88;43.60;97768.25;5035386;28;20179;-70
2022/09/11 09:46:42;;;;;;;4.50;4.20;;;;;;;24.56;43.94;97768.50;5050395;28;20476;-70
2022/09/11 09:49:13;;;;;;;5.30;4.80;;;;;;;24.31;44.75;97772.16;5053502;28;20500;-70
2022/09/11 09:51:39;;;;;;;6.37;4.30;;;;;;;24.07;45.54;97768.56;5052310;28;20512;-70
2022/09/11 09:54:05;;;;;;;5.43;4.87;;;;;;;23.99;46.52;97768.88;5046659;28;20431;-70
2022/09/11 09:56:33;;;;;;;7.60;5.37;;;;;;;23.84;46.50;97769.22;5032541;28;20969;-71
2022/09/11 09:59:01;;;;;;;5.90;4.47;;;;;;;23.78;46.65;97765.59;5013805;28;20443;-70
2022/09/11 10:01:49;;;;;;;5.33;4.70;;;;;;;23.73;47.14;97768.94;5030867;28;20483;-71
2022/09/11 10:04:17;;;;;;;7.53;4.70;;;;;;;23.74;47.42;97769.78;5015071;28;20517;-70
2022/09/11 10:06:44;;;;;;;6.40;4.80;;;;;;;23.70;46.79;97764.03;5044751;28;20418;-71
2022/09/11 10:09:30;;;;;;;5.53;4.60;;;;;;;23.73;46.96;97760.09;5035618;28;20460;-69
2022/09/11 10:12:01;;;;;;;7.30;4.90;;;;;;;23.78;46.56;97762.91;5048007;28;20924;-71
2022/09/11 10:14:33;;;;;;;6.23;4.70;;;;;;;23.80;46.72;97765.38;5038382;28;20449;-71
2022/09/11 10:17:00;;;;;;;5.43;4.57;;;;;;;23.82;46.73;97768.66;5045699;28;20432;-70
2022/09/11 10:19:41;;;;;;;8.67;5.10;;;;;;;23.80;46.98;97768.06;5041123;28;20440;-70
2022/09/11 10:22:31;;;;;;;6.20;5.00;;;;;;;23.72;46.23;97764.63;5036224;28;20520;-70
2022/09/11 10:24:59;;;;;;;5.40;4.53;;;;;;;23.70;46.36;97766.69;5038260;28;20453;-70
2022/09/11 10:27:30;;;;;;;5.47;4.97;;;;;;;23.65;45.79;97771.94;5035748;28;20459;-69
2022/09/11 10:29:57;;;;;;;5.33;4.83;;;;;;;23.60;46.46;97761.06;5039139;28;20955;-70
2022/09/11 10:32:23;;;;;;;7.00;3.97;;;;;;;23.60;46.29;97761.91;5043168;28;21070;-70
2022/09/11 10:34:50;;;;;;;5.10;4.70;;;;;;;23.61;46.70;97760.03;5041896;28;20941;-70
2022/09/11 10:37:33;;;;;;;5.47;5.07;;;;;;;23.62;46.68;97754.47;5039709;28;20455;-69
2022/09/11 10:40:06;;;;;;;5.67;5.07;;;;;;;23.65;47.08;97755.88;5042981;28;20862;-72
2022/09/11 10:42:33;;;;;;;6.60;5.73;;;;;;;23.69;47.12;97766.94;5036903;28;20433;-69
2022/09/11 10:45:10;;;;;;;5.30;4.90;;;;;;;24.00;46.44;97749.13;5042244;28;20461;-71
2022/09/11 10:47:36;;;;;;;5.97;5.20;;;;;;;24.37;45.87;97754.38;5044483;28;20854;-70
2022/09/11 10:50:16;;;;;;;7.10;5.90;;;;;;;24.82;43.56;97750.44;5036902;28;20434;-70
2022/09/11 10:52:57;;;;;;;6.67;6.03;;;;;;;25.43;42.52;97752.91;5033884;28;20466;-71
2022/09/11 10:55:34;;;;;;;5.30;4.80;;;;;;;25.98;40.43;97753.44;5049281;28;21152;-70
2022/09/11 10:58:18;;;;;;;4.83;4.43;;;;;;;26.31;39.16;97746.59;5040632;28;20479;-71
2022/09/11 11:00:43;;;;;;;4.50;4.10;;;;;;;26.80;38.89;97746.91;5042276;28;20432;-69
2022/09/11 11:03:15;;;;;;;4.50;4.00;;;;;;;27.10;38.38;97737.66;5038501;28;20430;-69
2022/09/11 11:06:09;;;;;;;4.30;3.93;;;;;;;27.20;37.97;97736.19;5037266;28;20234;-69
2022/09/11 11:08:46;;;;;;;7.23;4.20;;;;;;;27.00;38.33;97740.19;5038827;28;20559;-69
2022/09/11 11:11:31;;;;;;;4.57;3.97;;;;;;;26.73;38.33;97742.72;5043185;28;20457;-70
2022/09/11 11:14:08;;;;;;;5.00;4.40;;;;;;;26.21;39.83;97745.31;5038441;28;20989;-72
2022/09/11 11:16:50;;;;;;;8.03;4.57;;;;;;;25.88;40.93;97748.72;5050811;28;20461;-69
2022/09/11 11:19:52;;;;;;;7.37;5.30;;;;;;;25.58;41.77;97747.84;5025559;28;20914;-70
2022/09/11 11:22:36;;;;;;;4.93;4.17;;;;;;;25.30;42.61;97760.09;5049626;28;20426;-69
2022/09/11 11:25:20;;;;;;;4.33;4.03;;;;;;;25.09;42.73;97755.31;5042909;28;20441;-71
2022/09/11 11:28:07;;;;;;;5.93;4.13;;;;;;;25.02;43.72;97754.63;5033452;28;20961;-68
2022/09/11 11:30:43;;;;;;;5.10;4.70;;;;;;;25.05;43.91;97746.94;5042203;28;20417;-69
2022/09/11 11:33:30;;;;;;;6.97;5.37;;;;;;;25.14;43.87;97750.06;5047409;28;20472;-70
2022/09/11 11:36:07;;;;;;;5.80;5.17;;;;;;;25.20;43.87;97753.69;5051000;28;21025;-71
2022/09/11 11:38:38;;;;;;;5.57;5.07;;;;;;;25.37;42.45;97749.25;5049107;28;20520;-69
2022/09/11 11:41:10;;;;;;;5.03;4.33;;;;;;;25.82;42.64;97744.28;5050826;28;20436;-69
2022/09/11 11:43:38;;;;;;;4.50;3.93;;;;;;;26.27;40.03;97745.44;5049138;28;20418;-69
2022/09/11 11:46:14;;;;;;;3.80;3.47;;;;;;;26.67;39.71;97747.19;5042899;28;20453;-71
2022/09/11 11:48:57;;;;;;;4.30;3.90;;;;;;;27.01;37.72;97741.84;5039684;28;20427;-69